Time;durP1;ratioP1;P1;durP2;ratioP2;P2;SDS_P1;SDS_P2;PMS_P1;PMS_P2;Temp;Humidity;BMP_temperature;BMP_pressure;BME280_temperature;BME280_humidity;BME280_pressure;Samples;Min_cycle;Max_cycle;Signal;HPM_P1;HPM_P2
2021/10/18 00:01:47;;;;;;;17.73;11.50;;;10.30;99.90;;;;;;5100854;27;20181;-43
2021/10/18 00:04:14;;;;;;;15.00;10.93;;;10.30;99.90;;;;;;5102375;27;20628;-50
2021/10/18 00:06:41;;;;;;;19.00;11.60;;;10.30;99.90;;;;;;5090945;27;20551;-43
2021/10/18 00:09:07;;;;;;;15.97;11.23;;;10.30;99.90;;;;;;5096628;27;20193;-45
2021/10/18 00:11:34;;;;;;;14.23;11.07;;;10.30;99.90;;;;;;5101694;28;20213;-43
2021/10/18 00:14:01;;;;;;;14.97;10.40;;;10.30;99.90;;;;;;5105642;28;20209;-43
2021/10/18 00:16:28;;;;;;;18.43;12.10;;;10.30;99.90;;;;;;5102261;28;20211;-45
2021/10/18 00:18:56;;;;;;;16.30;11.80;;;10.30;99.90;;;;;;5105623;28;20200;-45
2021/10/18 00:21:23;;;;;;;16.80;10.27;;;10.30;99.90;;;;;;5090057;27;20208;-45
2021/10/18 00:23:49;;;;;;;14.40;10.80;;;10.30;99.90;;;;;;5093542;27;20213;-45
2021/10/18 00:26:16;;;;;;;16.07;11.13;;;10.30;99.90;;;;;;5104632;28;20250;-48
2021/10/18 00:28:42;;;;;;;16.23;10.63;;;10.40;99.90;;;;;;5105156;27;20190;-45
2021/10/18 00:31:09;;;;;;;15.47;10.13;;;10.30;99.90;;;;;;5105294;28;20685;-43
2021/10/18 00:33:36;;;;;;;15.50;10.27;;;10.30;99.90;;;;;;5101460;28;20190;-43
2021/10/18 00:36:04;;;;;;;13.00;10.23;;;10.30;99.90;;;;;;5092133;27;20210;-43
2021/10/18 00:38:31;;;;;;;13.13;10.30;;;10.30;99.90;;;;;;5100972;27;20200;-43
2021/10/18 00:40:57;;;;;;;16.50;10.50;;;10.30;99.90;;;;;;5096388;27;20197;-44
2021/10/18 00:43:24;;;;;;;15.70;9.20;;;10.30;99.90;;;;;;5102383;28;20197;-46
2021/10/18 00:45:51;;;;;;;13.10;10.00;;;10.30;99.90;;;;;;5104357;28;20224;-43
2021/10/18 00:48:17;;;;;;;15.03;9.67;;;10.30;99.90;;;;;;5103927;28;20212;-49
2021/10/18 00:50:44;;;;;;;13.77;9.43;;;10.30;99.90;;;;;;5102640;28;20189;-43
2021/10/18 00:53:12;;;;;;;13.37;10.00;;;10.30;99.90;;;;;;5091792;27;20213;-49
2021/10/18 00:55:39;;;;;;;14.30;9.57;;;10.30;99.90;;;;;;5096320;28;20233;-44
2021/10/18 00:58:06;;;;;;;12.63;9.13;;;10.30;99.90;;;;;;5109853;27;20204;-45
2021/10/18 01:00:32;;;;;;;16.77;9.63;;;10.40;99.90;;;;;;5100798;28;20887;-43
2021/10/18 01:03:00;;;;;;;11.63;9.20;;;10.30;99.90;;;;;;5104369;27;20197;-43
2021/10/18 01:05:28;;;;;;;14.00;9.43;;;10.40;99.90;;;;;;5087939;28;20224;-44
2021/10/18 01:07:55;;;;;;;14.00;9.87;;;10.40;99.90;;;;;;5088342;27;20212;-47
2021/10/18 01:10:23;;;;;;;14.77;9.00;;;10.40;99.90;;;;;;5103141;28;20189;-44
2021/10/18 01:12:50;;;;;;;13.33;9.57;;;10.40;99.90;;;;;;5093647;27;20670;-51
2021/10/18 01:15:16;;;;;;;13.20;8.87;;;10.40;99.90;;;;;;5101705;28;20209;-43
2021/10/18 01:17:43;;;;;;;11.27;8.80;;;10.40;99.90;;;;;;5104237;28;20301;-50
2021/10/18 01:20:11;;;;;;;14.67;8.97;;;10.40;99.90;;;;;;5100763;28;20266;-43
2021/10/18 01:22:40;;;;;;;15.00;9.47;;;10.40;99.90;;;;;;5090940;27;20285;-45
2021/10/18 01:25:07;;;;;;;10.90;9.33;;;10.40;99.90;;;;;;5099592;27;20209;-43
2021/10/18 01:27:34;;;;;;;13.87;8.47;;;10.30;99.90;;;;;;5095032;28;20205;-42
2021/10/18 01:30:01;;;;;;;13.23;8.90;;;10.40;99.90;;;;;;5100110;28;20212;-46
2021/10/18 01:32:27;;;;;;;12.50;9.00;;;10.30;99.90;;;;;;5103960;28;20217;-42
2021/10/18 01:34:54;;;;;;;14.10;8.40;;;10.30;99.90;;;;;;5101491;28;20224;-47
2021/10/18 01:37:21;;;;;;;11.43;8.27;;;10.30;99.90;;;;;;5102729;28;20197;-44
2021/10/18 01:39:49;;;;;;;12.07;8.37;;;10.30;99.90;;;;;;5089135;27;20212;-46
2021/10/18 01:42:15;;;;;;;11.87;8.53;;;10.20;99.90;;;;;;5094771;28;20212;-44
2021/10/18 01:44:42;;;;;;;13.30;9.20;;;10.20;99.90;;;;;;5103648;28;20236;-45
2021/10/18 01:47:08;;;;;;;13.40;8.77;;;10.20;99.90;;;;;;5096580;28;20205;-41
2021/10/18 01:49:35;;;;;;;12.17;8.03;;;10.10;99.90;;;;;;5100886;28;20185;-42
2021/10/18 01:52:02;;;;;;;13.43;9.27;;;10.10;99.90;;;;;;5088799;28;20705;-45
2021/10/18 01:54:28;;;;;;;12.80;8.40;;;10.00;99.90;;;;;;5090306;28;20233;-42
2021/10/18 01:56:56;;;;;;;12.40;8.47;;;10.00;99.90;;;;;;5100778;28;20674;-47
2021/10/18 01:59:23;;;;;;;10.50;8.53;;;10.00;99.90;;;;;;5098046;27;20315;-49
2021/10/18 02:01:50;;;;;;;14.57;8.43;;;9.90;99.90;;;;;;5101725;28;20196;-46
2021/10/18 02:04:16;;;;;;;15.30;8.43;;;9.90;99.90;;;;;;5101520;28;20206;-43
2021/10/18 02:06:43;;;;;;;14.47;8.60;;;9.90;99.90;;;;;;5103551;28;20201;-48
2021/10/18 02:09:09;;;;;;;13.10;8.07;;;9.90;99.90;;;;;;5086397;28;20333;-43
2021/10/18 02:11:36;;;;;;;12.63;8.97;;;9.90;99.90;;;;;;5103009;28;20208;-42
2021/10/18 02:14:05;;;;;;;13.47;9.10;;;9.90;99.90;;;;;;5094154;28;20240;-44
2021/10/18 02:16:34;;;;;;;14.50;10.17;;;9.90;99.90;;;;;;5103527;28;20201;-41
2021/10/18 02:19:00;;;;;;;13.10;9.97;;;9.90;99.90;;;;;;5099697;28;20205;-43
2021/10/18 02:21:27;;;;;;;11.63;9.17;;;9.80;99.90;;;;;;5103201;28;20611;-43
2021/10/18 02:23:54;;;;;;;13.20;9.10;;;9.90;99.90;;;;;;5093026;28;20205;-44
2021/10/18 02:26:21;;;;;;;13.00;9.00;;;9.80;99.90;;;;;;5103972;27;20193;-41
2021/10/18 02:28:47;;;;;;;16.07;9.27;;;9.80;99.90;;;;;;5098441;28;20646;-42
2021/10/18 02:31:17;;;;;;;14.67;9.23;;;9.80;99.90;;;;;;5093492;28;20917;-42
2021/10/18 02:33:44;;;;;;;10.97;8.37;;;9.70;99.90;;;;;;5097390;28;20213;-45
2021/10/18 02:36:11;;;;;;;14.37;9.67;;;9.70;99.90;;;;;;5093338;28;20189;-44
2021/10/18 02:38:38;;;;;;;11.80;9.97;;;9.70;99.90;;;;;;5102720;28;20193;-42
2021/10/18 02:41:05;;;;;;;12.17;9.87;;;9.70;99.90;;;;;;5085548;28;20197;-44
2021/10/18 02:43:31;;;;;;;15.33;9.80;;;9.70;99.90;;;;;;5102852;28;20247;-43
2021/10/18 02:45:58;;;;;;;15.70;10.27;;;9.70;99.90;;;;;;5093330;28;20205;-45
2021/10/18 02:48:26;;;;;;;17.90;10.57;;;9.80;99.90;;;;;;5102789;28;20209;-41
2021/10/18 02:50:53;;;;;;;15.53;9.60;;;9.80;99.90;;;;;;5100729;28;20197;-47
2021/10/18 02:53:20;;;;;;;16.07;9.60;;;9.80;99.90;;;;;;5101547;28;20998;-46
2021/10/18 02:55:47;;;;;;;13.83;9.37;;;9.80;99.90;;;;;;5099330;28;20590;-45
2021/10/18 02:58:13;;;;;;;18.17;9.50;;;9.80;99.90;;;;;;5091196;27;20216;-45
2021/10/18 03:00:40;;;;;;;14.13;10.30;;;9.80;99.90;;;;;;5094958;28;20206;-42
2021/10/18 03:03:07;;;;;;;17.03;10.67;;;9.80;99.90;;;;;;5098951;28;20189;-44
2021/10/18 03:05:35;;;;;;;14.00;10.67;;;9.80;99.90;;;;;;5103522;28;20299;-45
2021/10/18 03:08:04;;;;;;;14.30;9.60;;;9.80;99.90;;;;;;5087899;28;20201;-42
2021/10/18 03:10:31;;;;;;;16.33;10.97;;;9.70;99.90;;;;;;5102042;28;20670;-43
2021/10/18 03:12:57;;;;;;;15.03;10.33;;;9.80;99.90;;;;;;5086608;28;20213;-44
2021/10/18 03:15:24;;;;;;;16.90;11.73;;;9.80;99.90;;;;;;5102134;28;20214;-41
2021/10/18 03:17:51;;;;;;;17.77;11.37;;;9.80;99.90;;;;;;5093560;28;20232;-48
2021/10/18 03:20:18;;;;;;;15.20;11.40;;;9.80;99.90;;;;;;5101347;28;20277;-44
2021/10/18 03:22:46;;;;;;;19.50;11.00;;;9.70;99.90;;;;;;5102448;28;20549;-43
2021/10/18 03:25:14;;;;;;;20.67;12.23;;;9.70;99.90;;;;;;5100154;28;20355;-43
2021/10/18 03:27:41;;;;;;;19.90;11.73;;;9.70;99.90;;;;;;5090418;28;20209;-44
2021/10/18 03:30:09;;;;;;;21.17;12.80;;;9.70;99.90;;;;;;5101688;28;20200;-46
2021/10/18 03:32:36;;;;;;;16.70;12.43;;;9.60;99.90;;;;;;5096794;27;20213;-42
2021/10/18 03:35:03;;;;;;;20.37;13.53;;;9.70;99.90;;;;;;5100490;28;20225;-44
2021/10/18 03:37:29;;;;;;;17.67;12.53;;;9.60;99.90;;;;;;5106662;27;20246;-43
2021/10/18 03:39:57;;;;;;;16.67;12.33;;;9.70;99.90;;;;;;5103713;28;20197;-47
2021/10/18 03:42:24;;;;;;;18.50;12.03;;;9.70;99.90;;;;;;5095931;27;20721;-47
2021/10/18 03:44:51;;;;;;;19.37;11.53;;;9.70;99.90;;;;;;5105721;27;20226;-45
2021/10/18 03:47:18;;;;;;;14.63;11.83;;;9.70;99.90;;;;;;5104527;28;20219;-48
2021/10/18 03:49:45;;;;;;;16.80;13.30;;;9.70;99.90;;;;;;5098916;28;20662;-46
2021/10/18 03:52:14;;;;;;;18.00;12.47;;;9.80;99.90;;;;;;5102783;28;20213;-46
2021/10/18 03:54:41;;;;;;;22.47;13.77;;;9.80;99.90;;;;;;5098358;28;20243;-43
2021/10/18 03:57:09;;;;;;;22.30;13.83;;;9.80;99.90;;;;;;5099702;28;20201;-46
2021/10/18 03:59:36;;;;;;;23.57;14.57;;;9.70;99.90;;;;;;5091569;27;20702;-41
2021/10/18 04:02:04;;;;;;;19.37;14.30;;;9.80;99.90;;;;;;5086174;27;20729;-45
2021/10/18 04:04:31;;;;;;;18.90;12.63;;;9.80;99.90;;;;;;5093348;28;20814;-44
2021/10/18 04:06:58;;;;;;;19.80;12.27;;;9.80;99.90;;;;;;5099455;27;20205;-50
2021/10/18 04:09:24;;;;;;;18.73;12.63;;;9.80;99.90;;;;;;5102709;28;20236;-45
2021/10/18 04:11:51;;;;;;;16.87;11.37;;;9.80;99.90;;;;;;5100754;28;20220;-43
2021/10/18 04:14:19;;;;;;;18.33;12.53;;;9.90;99.90;;;;;;5086921;27;20237;-48
2021/10/18 04:16:45;;;;;;;18.07;11.80;;;9.90;99.90;;;;;;5094020;28;20192;-42
2021/10/18 04:19:13;;;;;;;18.53;11.87;;;9.90;99.90;;;;;;5103518;27;20725;-50
2021/10/18 04:21:39;;;;;;;15.53;11.10;;;10.00;99.90;;;;;;5091286;27;20208;-42
2021/10/18 04:24:06;;;;;;;17.40;11.90;;;10.00;99.90;;;;;;5105359;28;20216;-42
2021/10/18 04:26:33;;;;;;;16.97;11.40;;;10.00;99.90;;;;;;5102020;27;20197;-45
2021/10/18 04:28:59;;;;;;;15.00;10.93;;;10.00;99.90;;;;;;5088664;27;20212;-43
2021/10/18 04:31:29;;;;;;;17.67;11.93;;;10.10;99.90;;;;;;5092463;27;20205;-47
2021/10/18 04:33:56;;;;;;;14.23;11.47;;;10.10;99.90;;;;;;5105406;28;20222;-49
2021/10/18 04:36:24;;;;;;;17.23;11.07;;;10.10;99.90;;;;;;5093827;27;20209;-50
2021/10/18 04:38:51;;;;;;;17.63;12.80;;;10.10;99.90;;;;;;5096708;27;20236;-47
2021/10/18 04:41:17;;;;;;;14.53;10.57;;;10.20;99.90;;;;;;5102179;28;20684;-47
2021/10/18 04:43:44;;;;;;;13.47;10.63;;;10.10;99.90;;;;;;5086457;27;20197;-49
2021/10/18 04:46:11;;;;;;;14.90;10.53;;;10.20;99.90;;;;;;5086760;27;20214;-47
2021/10/18 04:48:39;;;;;;;16.13;11.37;;;10.20;99.90;;;;;;5095321;27;20707;-53
2021/10/18 04:51:06;;;;;;;14.43;11.13;;;10.20;99.90;;;;;;5092023;27;20213;-49
2021/10/18 04:53:33;;;;;;;15.67;11.50;;;10.20;99.90;;;;;;5095939;27;20225;-47
2021/10/18 04:55:59;;;;;;;15.30;10.97;;;10.20;99.90;;;;;;5100843;28;20212;-51
2021/10/18 04:58:26;;;;;;;13.83;10.23;;;10.20;99.90;;;;;;5092180;27;20202;-50
2021/10/18 05:00:56;;;;;;;14.07;10.00;;;10.30;99.90;;;;;;5090099;27;20209;-50
2021/10/18 05:03:22;;;;;;;18.50;11.10;;;10.30;99.90;;;;;;5086279;27;20220;-45
2021/10/18 05:05:50;;;;;;;17.87;11.13;;;10.30;99.90;;;;;;5098305;28;20751;-50
2021/10/18 05:08:17;;;;;;;19.83;11.93;;;10.30;99.90;;;;;;5093820;27;20194;-43
2021/10/18 05:10:44;;;;;;;15.77;11.43;;;10.30;99.90;;;;;;5098331;28;20215;-46
2021/10/18 05:13:12;;;;;;;16.07;11.30;;;10.30;99.90;;;;;;5102144;28;20461;-47
2021/10/18 05:15:39;;;;;;;14.53;11.57;;;10.30;99.90;;;;;;5083241;27;20225;-47
2021/10/18 05:18:06;;;;;;;16.47;11.30;;;10.40;99.90;;;;;;5085727;27;20198;-50
2021/10/18 05:20:35;;;;;;;16.60;12.00;;;10.30;99.90;;;;;;5092889;28;20206;-49
2021/10/18 05:23:03;;;;;;;16.03;11.37;;;10.40;99.90;;;;;;5091265;28;20185;-47
2021/10/18 05:25:30;;;;;;;23.23;13.40;;;10.40;99.90;;;;;;5094472;28;20724;-48
2021/10/18 05:27:57;;;;;;;18.17;12.37;;;10.40;99.90;;;;;;5088594;28;20201;-51
2021/10/18 05:30:25;;;;;;;18.07;11.40;;;10.40;99.90;;;;;;5098412;28;20546;-45
2021/10/18 05:32:52;;;;;;;18.43;12.20;;;10.40;99.90;;;;;;5087909;27;20284;-51
2021/10/18 05:35:19;;;;;;;19.23;14.10;;;10.40;99.90;;;;;;5095058;27;20217;-50
2021/10/18 05:37:46;;;;;;;15.23;11.30;;;10.40;99.90;;;;;;5095653;27;20212;-48
2021/10/18 05:40:16;;;;;;;16.10;11.13;;;10.40;99.90;;;;;;5093631;28;20200;-47
2021/10/18 05:42:43;;;;;;;18.13;11.83;;;10.40;99.90;;;;;;5096979;28;20573;-46
2021/10/18 05:45:11;;;;;;;17.30;12.20;;;10.50;99.90;;;;;;5089607;27;20222;-45
2021/10/18 05:47:54;;;;;;;16.77;11.33;;;10.50;99.90;;;;;;5089349;27;20216;-47
2021/10/18 05:50:22;;;;;;;19.33;11.20;;;10.50;99.90;;;;;;5091946;28;20210;-46
2021/10/18 05:52:48;;;;;;;16.93;12.03;;;10.50;99.90;;;;;;5095485;28;20208;-48
2021/10/18 05:55:17;;;;;;;16.90;12.10;;;10.50;99.90;;;;;;5086374;27;20225;-45
2021/10/18 05:57:51;;;;;;;17.50;10.70;;;10.50;99.90;;;;;;5090734;27;21824;-44
2021/10/18 06:00:18;;;;;;;15.17;10.87;;;10.50;99.90;;;;;;5098147;28;20603;-46
2021/10/18 06:02:45;;;;;;;16.83;10.97;;;10.50;99.90;;;;;;5077388;27;20216;-45
2021/10/18 06:05:12;;;;;;;15.37;10.90;;;10.50;99.90;;;;;;5103574;28;20242;-45
2021/10/18 06:07:39;;;;;;;18.70;11.17;;;10.50;99.90;;;;;;5093962;28;20185;-44
2021/10/18 06:10:07;;;;;;;14.03;10.50;;;10.50;99.90;;;;;;5094818;28;20194;-44
2021/10/18 06:12:35;;;;;;;17.77;10.57;;;10.50;99.90;;;;;;5099178;28;20200;-47
2021/10/18 06:15:03;;;;;;;16.13;10.00;;;10.60;99.90;;;;;;5081349;28;20825;-46
2021/10/18 06:17:30;;;;;;;15.50;10.67;;;10.60;99.90;;;;;;5089575;28;20216;-46
2021/10/18 06:19:56;;;;;;;16.30;11.03;;;10.60;99.90;;;;;;5082893;28;20197;-44
2021/10/18 06:22:23;;;;;;;20.87;12.40;;;10.60;99.90;;;;;;5093722;28;20202;-47
2021/10/18 06:24:51;;;;;;;19.20;10.50;;;10.60;99.90;;;;;;5080808;28;21439;-41
2021/10/18 06:27:18;;;;;;;13.53;11.20;;;10.60;99.90;;;;;;5100955;28;20635;-50
2021/10/18 06:29:46;;;;;;;16.67;11.00;;;10.70;99.90;;;;;;5088506;28;20200;-46
2021/10/18 06:32:13;;;;;;;15.33;11.80;;;10.70;99.90;;;;;;5091370;28;20194;-48
2021/10/18 06:34:39;;;;;;;16.13;10.63;;;10.70;99.90;;;;;;5081389;28;22015;-47
2021/10/18 06:37:06;;;;;;;17.73;11.80;;;10.70;99.90;;;;;;5094316;28;20200;-46
2021/10/18 06:39:32;;;;;;;18.50;11.87;;;10.70;99.90;;;;;;5086933;28;20654;-49
2021/10/18 06:41:59;;;;;;;18.20;12.27;;;10.70;99.90;;;;;;5091224;28;20189;-46
2021/10/18 06:44:26;;;;;;;16.80;11.97;;;10.70;99.90;;;;;;5094561;28;20198;-50
2021/10/18 06:46:54;;;;;;;14.53;10.40;;;10.80;99.90;;;;;;5093410;28;20197;-46
2021/10/18 06:49:23;;;;;;;16.20;11.60;;;10.80;99.90;;;;;;5097172;28;20662;-50
2021/10/18 06:51:52;;;;;;;18.57;12.73;;;10.80;99.90;;;;;;5095770;27;20189;-48
2021/10/18 06:54:20;;;;;;;16.23;10.30;;;10.80;99.90;;;;;;5093446;28;20213;-46
2021/10/18 06:56:46;;;;;;;14.17;10.93;;;10.80;99.90;;;;;;5087075;28;20196;-46
2021/10/18 06:59:13;;;;;;;19.73;11.43;;;10.90;99.90;;;;;;5101490;28;20190;-46
2021/10/18 07:01:40;;;;;;;16.83;10.20;;;10.90;99.90;;;;;;5082403;28;20197;-47
2021/10/18 07:04:08;;;;;;;18.47;12.10;;;10.90;99.90;;;;;;5098232;28;20296;-44
2021/10/18 07:06:36;;;;;;;12.37;10.20;;;10.90;99.90;;;;;;5077031;27;20202;-47
2021/10/18 07:09:04;;;;;;;14.83;11.17;;;11.00;99.90;;;;;;5103342;28;20555;-47
2021/10/18 07:11:30;;;;;;;16.80;9.87;;;11.00;99.90;;;;;;5092241;28;20197;-53
2021/10/18 07:13:57;;;;;;;15.70;10.90;;;11.00;99.90;;;;;;5096346;28;20222;-44
2021/10/18 07:16:24;;;;;;;15.07;11.47;;;11.10;99.90;;;;;;5090738;27;20220;-50
2021/10/18 07:18:50;;;;;;;18.03;10.50;;;11.10;99.90;;;;;;5096550;28;20243;-44
2021/10/18 07:21:18;;;;;;;16.90;11.43;;;11.10;99.90;;;;;;5099871;27;20194;-49
2021/10/18 07:23:50;;;;;;;16.00;11.27;;;11.10;99.90;;;;;;5085458;27;20209;-44
2021/10/18 07:26:17;;;;;;;16.03;12.00;;;11.20;99.90;;;;;;5092484;27;20682;-51
2021/10/18 07:28:43;;;;;;;19.10;12.80;;;11.20;99.90;;;;;;5094302;27;20201;-44
2021/10/18 07:31:10;;;;;;;17.63;12.60;;;11.20;99.90;;;;;;5094745;27;20928;-47
2021/10/18 07:33:37;;;;;;;16.83;11.57;;;11.20;99.90;;;;;;5094013;27;20198;-47
2021/10/18 07:36:08;;;;;;;21.67;12.33;;;11.20;99.90;;;;;;5093912;27;20572;-50
2021/10/18 07:38:37;;;;;;;16.63;11.83;;;11.20;99.90;;;;;;5085902;27;20279;-49
2021/10/18 07:41:04;;;;;;;19.00;12.03;;;11.20;99.90;;;;;;5097128;27;20232;-52
2021/10/18 07:43:31;;;;;;;18.33;12.20;;;11.30;99.90;;;;;;5096240;27;20193;-45
2021/10/18 07:45:57;;;;;;;13.10;10.60;;;11.30;99.90;;;;;;5097181;28;20219;-50
2021/10/18 07:48:24;;;;;;;12.50;10.57;;;11.30;99.90;;;;;;5091037;27;21929;-45
2021/10/18 07:50:51;;;;;;;15.77;10.80;;;11.40;99.90;;;;;;5093128;28;20668;-53
2021/10/18 07:53:17;;;;;;;18.90;11.03;;;11.40;99.90;;;;;;5082562;27;21027;-43
2021/10/18 07:55:45;;;;;;;15.03;11.27;;;11.40;99.90;;;;;;5102126;28;20228;-47
2021/10/18 07:58:12;;;;;;;15.00;11.53;;;11.50;99.90;;;;;;5092643;27;20291;-46
2021/10/18 08:00:39;;;;;;;13.87;10.57;;;11.50;99.90;;;;;;5097755;28;20206;-46
2021/10/18 08:03:05;;;;;;;14.63;11.70;;;11.50;99.90;;;;;;5085639;27;20202;-49
2021/10/18 08:05:32;;;;;;;18.70;11.33;;;11.60;99.90;;;;;;5091115;27;20217;-44
2021/10/18 08:07:59;;;;;;;15.43;12.10;;;11.60;99.90;;;;;;5084795;27;20284;-50
2021/10/18 08:10:26;;;;;;;17.50;11.40;;;11.70;99.90;;;;;;5096539;28;20235;-44
2021/10/18 08:12:57;;;;;;;17.73;11.50;;;11.70;99.90;;;;;;5089750;27;20205;-51
2021/10/18 08:15:25;;;;;;;13.07;10.70;;;11.70;99.90;;;;;;5086604;27;20225;-48
2021/10/18 08:17:52;;;;;;;17.90;11.27;;;11.80;99.90;;;;;;5091841;27;20206;-52
2021/10/18 08:20:19;;;;;;;15.13;10.87;;;11.80;99.90;;;;;;5083691;27;20210;-47
2021/10/18 08:22:46;;;;;;;16.90;11.40;;;11.90;99.90;;;;;;5101937;28;20197;-50
2021/10/18 08:25:13;;;;;;;19.87;12.70;;;12.00;99.90;;;;;;5077609;27;20901;-43
2021/10/18 08:27:40;;;;;;;20.37;12.73;;;12.00;99.90;;;;;;5097761;27;20568;-49
2021/10/18 08:30:09;;;;;;;14.07;10.27;;;12.10;99.90;;;;;;5089220;28;20224;-49
2021/10/18 08:32:36;;;;;;;15.43;10.83;;;12.10;99.90;;;;;;5101126;28;20198;-47
2021/10/18 08:35:03;;;;;;;11.57;9.63;;;12.20;99.90;;;;;;5085573;27;20217;-52
2021/10/18 08:40:11;;;;;;;13.20;10.17;;;12.20;99.90;;;;;;5082122;27;20201;-45
2021/10/18 08:42:56;;;;;;;13.90;9.50;;;12.30;99.90;;;;;;5086025;27;20221;-44
2021/10/18 08:45:24;;;;;;;12.93;9.60;;;12.30;99.90;;;;;;5098552;27;20219;-44
2021/10/18 08:47:53;;;;;;;12.03;9.73;;;12.30;99.90;;;;;;5094509;28;20693;-49
2021/10/18 08:50:20;;;;;;;11.80;9.73;;;12.40;99.90;;;;;;5088859;27;20197;-46
2021/10/18 08:52:49;;;;;;;10.47;9.37;;;12.40;99.90;;;;;;5096969;27;20844;-52
2021/10/18 08:55:16;;;;;;;13.83;8.53;;;12.50;99.90;;;;;;5086953;27;20221;-44
2021/10/18 08:57:42;;;;;;;15.17;10.63;;;12.50;99.90;;;;;;5097558;27;20201;-43
2021/10/18 09:00:39;;;;;;;13.37;9.33;;;12.60;99.90;;;;;;5092143;27;20202;-47
2021/10/18 09:03:17;;;;;;;11.17;9.30;;;12.60;99.90;;;;;;5090200;27;20278;-49
2021/10/18 09:05:44;;;;;;;12.77;9.40;;;12.60;99.90;;;;;;5082999;27;20231;-44
2021/10/18 09:08:33;;;;;;;11.83;9.73;;;12.60;99.90;;;;;;5092967;27;20551;-44
2021/10/18 09:11:08;;;;;;;12.97;9.40;;;12.70;99.90;;;;;;5082233;27;20208;-49
2021/10/18 09:13:36;;;;;;;13.10;9.27;;;12.70;99.90;;;;;;5086942;27;20723;-51
2021/10/18 09:16:04;;;;;;;10.80;8.73;;;12.70;99.90;;;;;;5093551;28;20217;-44
2021/10/18 09:18:31;;;;;;;13.07;10.30;;;12.70;99.90;;;;;;5090958;28;20559;-53
2021/10/18 09:20:58;;;;;;;11.20;9.50;;;12.80;99.90;;;;;;5088367;27;20198;-46
2021/10/18 09:23:28;;;;;;;16.33;10.00;;;12.80;99.90;;;;;;5089001;27;20213;-51
2021/10/18 09:25:59;;;;;;;14.37;9.90;;;12.80;99.90;;;;;;5098613;28;20194;-43
2021/10/18 09:28:27;;;;;;;12.33;8.83;;;12.80;99.90;;;;;;5074957;27;20233;-50
2021/10/18 09:30:54;;;;;;;13.13;9.70;;;12.80;99.90;;;;;;5090576;27;20514;-45
2021/10/18 09:33:26;;;;;;;13.03;9.37;;;12.80;99.90;;;;;;5102854;28;20510;-49
2021/10/18 09:35:54;;;;;;;13.27;9.30;;;12.80;99.90;;;;;;5084156;28;20253;-46
2021/10/18 09:38:22;;;;;;;11.87;9.10;;;12.80;99.90;;;;;;5099566;28;20199;-50
2021/10/18 09:40:50;;;;;;;11.93;9.73;;;12.80;99.90;;;;;;5091274;28;20204;-44
2021/10/18 09:43:24;;;;;;;13.23;8.57;;;12.80;99.90;;;;;;5081661;27;20634;-45
2021/10/18 09:46:01;;;;;;;13.37;10.50;;;12.90;99.90;;;;;;5091989;28;20289;-44
2021/10/18 10:53:47;;;;;;;12.77;8.33;;;14.00;99.90;;;;;;5098803;27;20209;-51
2021/10/18 10:56:22;;;;;;;12.43;8.60;;;14.00;99.90;;;;;;5100089;28;20295;-45
2021/10/18 10:58:51;;;;;;;10.60;7.77;;;14.10;99.90;;;;;;5083207;27;20212;-47
2021/10/18 11:01:47;;;;;;;7.70;6.70;;;14.10;99.90;;;;;;5093963;28;20201;-52
2021/10/18 11:04:47;;;;;;;10.07;8.20;;;14.10;99.90;;;;;;5097314;28;20214;-43
2021/10/18 11:07:17;;;;;;;9.60;7.73;;;14.20;99.90;;;;;;5038062;28;20204;-44
2021/10/18 11:09:46;;;;;;;8.77;7.10;;;14.20;99.90;;;;;;5077746;28;20212;-52
2021/10/18 11:12:22;;;;;;;9.03;7.27;;;14.20;99.90;;;;;;5107053;28;20204;-43
2021/10/18 11:15:01;;;;;;;8.60;6.90;;;14.20;99.90;;;;;;5080872;27;20228;-45
2021/10/18 11:17:30;;;;;;;8.30;7.30;;;14.20;99.90;;;;;;5095395;28;20197;-49
2021/10/18 11:19:59;;;;;;;11.87;8.17;;;14.20;99.90;;;;;;5100585;28;20189;-47
2021/10/18 11:22:31;;;;;;;12.13;8.03;;;14.20;99.90;;;;;;5087136;27;20197;-52
2021/10/18 11:24:58;;;;;;;16.77;8.97;;;14.20;99.90;;;;;;5093183;27;20229;-47
2021/10/18 11:27:32;;;;;;;10.77;7.40;;;14.30;99.90;;;;;;5088868;28;20201;-52
2021/10/18 11:30:01;;;;;;;11.17;7.90;;;14.30;99.90;;;;;;5078487;27;20287;-48
2021/10/18 11:32:29;;;;;;;8.73;6.90;;;14.30;99.90;;;;;;5085129;27;20213;-55
2021/10/18 11:35:10;;;;;;;8.47;6.73;;;14.40;99.90;;;;;;5099356;28;20244;-48
2021/10/18 11:37:55;;;;;;;7.80;6.20;;;14.40;99.90;;;;;;5092031;28;20609;-51
2021/10/18 11:40:26;;;;;;;12.40;7.10;;;14.40;99.90;;;;;;5095272;28;20224;-50
2021/10/18 11:42:55;;;;;;;8.10;6.73;;;14.40;99.90;;;;;;5089666;28;20197;-45
2021/10/18 11:45:23;;;;;;;8.53;6.53;;;14.40;99.90;;;;;;5083632;28;20698;-52
2021/10/18 11:47:51;;;;;;;7.53;6.73;;;14.40;99.90;;;;;;5086518;27;20189;-49
2021/10/18 11:50:23;;;;;;;10.27;7.27;;;14.40;99.90;;;;;;5099344;28;20204;-47
2021/10/18 11:52:52;;;;;;;15.13;6.73;;;14.40;99.90;;;;;;5092081;28;20232;-44
2021/10/18 11:55:21;;;;;;;7.97;6.17;;;14.40;99.90;;;;;;5095798;28;20224;-53
2021/10/18 11:57:50;;;;;;;11.33;8.03;;;14.50;99.90;;;;;;5095222;28;20193;-51
2021/10/18 12:00:29;;;;;;;9.67;6.00;;;14.50;99.90;;;;;;5093925;27;20197;-46
2021/10/18 12:03:01;;;;;;;7.60;6.77;;;14.50;99.90;;;;;;5082276;27;20662;-44
2021/10/18 12:05:36;;;;;;;7.03;5.93;;;14.50;99.90;;;;;;5099509;28;20783;-48
2021/10/18 12:08:04;;;;;;;7.60;6.07;;;14.50;99.90;;;;;;5091601;28;20276;-45
2021/10/18 12:10:31;;;;;;;7.03;6.33;;;14.50;99.90;;;;;;5092713;28;20212;-51
2021/10/18 12:13:23;;;;;;;13.60;7.43;;;14.50;99.90;;;;;;5091855;28;20201;-47
2021/10/18 12:15:54;;;;;;;7.73;6.93;;;14.50;99.90;;;;;;5078402;27;20231;-45
2021/10/18 12:18:23;;;;;;;10.50;7.20;;;14.50;99.90;;;;;;5076976;27;20202;-53
2021/10/18 12:20:53;;;;;;;8.90;5.87;;;14.50;99.90;;;;;;5091628;27;20593;-44
2021/10/18 12:23:26;;;;;;;8.33;6.13;;;14.50;99.90;;;;;;5083409;27;20194;-48
2021/10/18 12:25:56;;;;;;;6.93;6.33;;;14.50;99.90;;;;;;5101121;27;20217;-47
2021/10/18 12:28:47;;;;;;;8.10;6.93;;;14.50;99.90;;;;;;5086638;28;20198;-48
2021/10/18 12:31:33;;;;;;;8.40;6.50;;;14.50;99.90;;;;;;5087580;27;20560;-53
2021/10/18 12:34:03;;;;;;;8.80;7.07;;;14.50;99.90;;;;;;5079461;27;20689;-51
2021/10/18 12:36:30;;;;;;;8.23;7.00;;;14.50;99.90;;;;;;5088516;27;20382;-45
2021/10/18 12:38:57;;;;;;;8.93;7.40;;;14.40;99.90;;;;;;5098045;27;20208;-51
2021/10/18 12:41:24;;;;;;;13.33;8.13;;;14.40;99.90;;;;;;5092732;28;20194;-48
2021/10/18 12:43:51;;;;;;;8.13;7.40;;;14.50;99.90;;;;;;5093998;27;20206;-47
2021/10/18 12:46:20;;;;;;;9.33;7.70;;;14.50;99.90;;;;;;5087183;27;20190;-50
2021/10/18 12:49:02;;;;;;;10.50;8.70;;;14.40;99.90;;;;;;5089232;27;20214;-45
2021/10/18 12:51:41;;;;;;;11.47;8.70;;;14.40;99.90;;;;;;5097566;28;20197;-43
2021/10/18 12:54:23;;;;;;;8.43;7.57;;;14.40;99.90;;;;;;5086057;27;20227;-53
2021/10/18 12:57:07;;;;;;;11.00;8.00;;;14.40;99.90;;;;;;5099955;28;20209;-48
2021/10/18 12:59:36;;;;;;;11.33;8.43;;;14.50;99.90;;;;;;5094880;28;21701;-48
2021/10/18 13:02:20;;;;;;;8.37;6.93;;;14.50;99.90;;;;;;5095898;27;20193;-50
2021/10/18 13:05:18;;;;;;;11.27;7.70;;;14.60;99.90;;;;;;5082078;27;20303;-45
2021/10/18 13:07:58;;;;;;;9.20;6.73;;;14.60;99.90;;;;;;5100272;28;20201;-47
2021/10/18 13:10:29;;;;;;;12.13;8.17;;;14.60;99.90;;;;;;5086800;27;20197;-46
2021/10/18 13:12:57;;;;;;;9.27;8.13;;;14.70;99.90;;;;;;5104243;28;20197;-51
2021/10/18 13:15:24;;;;;;;8.33;7.03;;;14.70;99.90;;;;;;5094806;27;20225;-44
2021/10/18 13:17:52;;;;;;;9.13;7.17;;;14.70;99.90;;;;;;5093744;28;20197;-47
2021/10/18 13:20:23;;;;;;;9.00;8.10;;;14.70;99.90;;;;;;5087429;27;20193;-47
2021/10/18 13:22:53;;;;;;;9.53;8.20;;;14.70;99.90;;;;;;5098703;28;20197;-43
2021/10/18 13:25:21;;;;;;;8.63;7.17;;;14.70;99.90;;;;;;5092061;27;20225;-44
2021/10/18 13:27:47;;;;;;;9.83;7.10;;;14.70;99.90;;;;;;5101888;28;20205;-45
2021/10/18 13:30:15;;;;;;;10.00;7.70;;;14.70;99.90;;;;;;5091831;27;20581;-51
2021/10/18 13:32:43;;;;;;;12.87;8.33;;;14.70;99.90;;;;;;5097428;28;20228;-43
2021/10/18 13:35:11;;;;;;;9.00;8.13;;;14.70;99.90;;;;;;5080521;27;20209;-52
2021/10/18 13:37:39;;;;;;;8.67;7.07;;;14.80;99.90;;;;;;5099415;28;20288;-47
2021/10/18 13:40:08;;;;;;;10.10;8.70;;;14.80;99.90;;;;;;5095579;27;20657;-51
2021/10/18 13:42:34;;;;;;;11.80;7.27;;;14.80;99.90;;;;;;5096720;28;20199;-46
2021/10/18 13:45:01;;;;;;;7.30;6.63;;;14.90;99.90;;;;;;5098322;28;20213;-50
2021/10/18 13:47:28;;;;;;;8.17;6.63;;;14.80;99.90;;;;;;5083763;28;20253;-44
2021/10/18 13:49:54;;;;;;;10.77;7.47;;;14.90;99.90;;;;;;5096116;28;20201;-52
2021/10/18 13:52:22;;;;;;;9.43;7.17;;;14.80;99.90;;;;;;5086420;27;20212;-44